sensor_id;sensor_type;location;lat;lon;timestamp;pressure;altitude;pressure_sealevel;temperature;humidity
31092;BME280;67728;53.122;12.776;2023-05-13T00:01:08;101280.75;;;8.35;74.92
31092;BME280;67728;53.122;12.776;2023-05-13T00:02:39;101280.69;;;8.25;75.10
31092;BME280;67728;53.122;12.776;2023-05-13T00:04:11;101278.16;;;8.28;74.25
31092;BME280;67728;53.122;12.776;2023-05-13T00:05:42;101279.88;;;8.27;74.66
31092;BME280;67728;53.122;12.776;2023-05-13T00:07:14;101283.25;;;8.17;74.32
31092;BME280;67728;53.122;12.776;2023-05-13T00:08:46;101284.13;;;8.18;75.72
31092;BME280;67728;53.122;12.776;2023-05-13T00:10:18;101280.69;;;8.23;75.33
31092;BME280;67728;53.122;12.776;2023-05-13T00:11:50;101278.13;;;8.19;75.11
31092;BME280;67728;53.122;12.776;2023-05-13T00:13:20;101274.75;;;8.35;74.93
31092;BME280;67728;53.122;12.776;2023-05-13T00:14:53;101277.28;;;8.30;74.85
31092;BME280;67728;53.122;12.776;2023-05-13T00:16:24;101278.94;;;8.19;74.87
31092;BME280;67728;53.122;12.776;2023-05-13T00:17:56;101271.19;;;8.15;75.49
31092;BME280;67728;53.122;12.776;2023-05-13T00:19:28;101287.56;;;8.17;75.00
31092;BME280;67728;53.122;12.776;2023-05-13T00:20:59;101279.81;;;8.17;73.75
31092;BME280;67728;53.122;12.776;2023-05-13T00:22:30;101277.22;;;8.11;74.83
31092;BME280;67728;53.122;12.776;2023-05-13T00:24:02;101278.06;;;8.07;74.71
31092;BME280;67728;53.122;12.776;2023-05-13T00:25:34;101272.88;;;8.07;74.01
31092;BME280;67728;53.122;12.776;2023-05-13T00:27:06;101275.44;;;8.01;75.19
31092;BME280;67728;53.122;12.776;2023-05-13T00:28:37;101275.41;;;7.92;75.84
31092;BME280;67728;53.122;12.776;2023-05-13T00:30:11;101269.38;;;7.93;75.43
31092;BME280;67728;53.122;12.776;2023-05-13T00:31:42;101276.25;;;7.86;75.12
31092;BME280;67728;53.122;12.776;2023-05-13T00:33:14;101278.03;;;7.95;76.42
31092;BME280;67728;53.122;12.776;2023-05-13T00:34:45;101273.72;;;7.98;75.16
31092;BME280;67728;53.122;12.776;2023-05-13T00:36:16;101286.66;;;8.06;76.19
31092;BME280;67728;53.122;12.776;2023-05-13T00:37:48;101277.22;;;8.08;76.32
31092;BME280;67728;53.122;12.776;2023-05-13T00:39:18;101279.81;;;8.20;76.22
31092;BME280;67728;53.122;12.776;2023-05-13T00:40:50;101279.81;;;8.17;76.01
31092;BME280;67728;53.122;12.776;2023-05-13T00:42:21;101284.09;;;8.09;74.91
31092;BME280;67728;53.122;12.776;2023-05-13T00:43:53;101279.72;;;7.91;76.08
31092;BME280;67728;53.122;12.776;2023-05-13T00:45:26;101284.91;;;7.99;76.49
31092;BME280;67728;53.122;12.776;2023-05-13T00:46:58;101279.75;;;7.99;76.18
31092;BME280;67728;53.122;12.776;2023-05-13T00:48:30;101287.56;;;8.11;75.36
31092;BME280;67728;53.122;12.776;2023-05-13T00:50:02;101285.72;;;7.87;75.77
31092;BME280;67728;53.122;12.776;2023-05-13T00:51:35;101283.19;;;7.95;75.51
31092;BME280;67728;53.122;12.776;2023-05-13T00:53:07;101286.59;;;7.88;76.17
31092;BME280;67728;53.122;12.776;2023-05-13T00:54:37;101279.72;;;7.87;76.27
31092;BME280;67728;53.122;12.776;2023-05-13T00:56:09;101281.41;;;7.84;75.47
31092;BME280;67728;53.122;12.776;2023-05-13T00:57:40;101289.94;;;7.68;76.20
31092;BME280;67728;53.122;12.776;2023-05-13T00:59:11;101286.50;;;7.69;75.93
31092;BME280;67728;53.122;12.776;2023-05-13T01:00:49;101288.19;;;7.66;76.91
31092;BME280;67728;53.122;12.776;2023-05-13T01:02:32;101285.63;;;7.67;76.31
31092;BME280;67728;53.122;12.776;2023-05-13T01:04:13;101283.91;;;7.71;76.39
31092;BME280;67728;53.122;12.776;2023-05-13T01:05:53;101285.66;;;7.72;76.33
31092;BME280;67728;53.122;12.776;2023-05-13T01:07:43;101283.91;;;7.71;76.79
31092;BME280;67728;53.122;12.776;2023-05-13T01:09:20;101286.53;;;7.75;76.32
31092;BME280;67728;53.122;12.776;2023-05-13T01:10:56;101282.28;;;7.85;76.34
31092;BME280;67728;53.122;12.776;2023-05-13T01:12:31;101289.97;;;7.79;75.94
31092;BME280;67728;53.122;12.776;2023-05-13T01:14:08;101284.81;;;7.79;76.39
31092;BME280;67728;53.122;12.776;2023-05-13T01:15:46;101289.13;;;7.75;76.03
31092;BME280;67728;53.122;12.776;2023-05-13T01:17:23;101289.97;;;7.74;76.42
31092;BME280;67728;53.122;12.776;2023-05-13T01:19:01;101292.53;;;7.74;76.97
31092;BME280;67728;53.122;12.776;2023-05-13T01:20:33;101293.31;;;7.58;77.50
31092;BME280;67728;53.122;12.776;2023-05-13T01:22:05;101291.59;;;7.60;77.53
31092;BME280;67728;53.122;12.776;2023-05-13T01:23:37;101295.97;;;7.67;77.08
31092;BME280;67728;53.122;12.776;2023-05-13T01:25:09;101300.31;;;7.79;76.98
31092;BME280;67728;53.122;12.776;2023-05-13T01:26:41;101302.06;;;7.84;76.40
31092;BME280;67728;53.122;12.776;2023-05-13T01:28:11;101300.28;;;7.71;76.97
31092;BME280;67728;53.122;12.776;2023-05-13T01:29:44;101298.59;;;7.78;76.98
31092;BME280;67728;53.122;12.776;2023-05-13T01:31:16;101304.63;;;7.80;76.40
31092;BME280;67728;53.122;12.776;2023-05-13T01:32:49;101307.19;;;7.77;76.50
31092;BME280;67728;53.122;12.776;2023-05-13T01:34:22;101314.00;;;7.66;76.74
31092;BME280;67728;53.122;12.776;2023-05-13T01:35:55;101308.06;;;7.79;76.87
31092;BME280;67728;53.122;12.776;2023-05-13T01:37:29;101309.78;;;7.81;76.55
31092;BME280;67728;53.122;12.776;2023-05-13T01:39:00;101296.03;;;7.82;76.79
31092;BME280;67728;53.122;12.776;2023-05-13T01:40:32;101302.09;;;7.92;76.51
31092;BME280;67728;53.122;12.776;2023-05-13T01:42:05;101307.28;;;7.98;76.65
31092;BME280;67728;53.122;12.776;2023-05-13T01:43:36;101314.09;;;7.82;76.56
31092;BME280;67728;53.122;12.776;2023-05-13T01:45:08;101314.09;;;7.78;77.45
31092;BME280;67728;53.122;12.776;2023-05-13T01:46:38;101309.03;;;7.95;76.61
31092;BME280;67728;53.122;12.776;2023-05-13T01:48:10;101307.16;;;7.74;76.64
31092;BME280;67728;53.122;12.776;2023-05-13T01:49:42;101308.84;;;7.70;76.48
31092;BME280;67728;53.122;12.776;2023-05-13T01:51:13;101320.91;;;7.67;77.78
31092;BME280;67728;53.122;12.776;2023-05-13T01:52:46;101317.47;;;7.69;77.46
31092;BME280;67728;53.122;12.776;2023-05-13T01:54:17;101314.03;;;7.69;77.67
31092;BME280;67728;53.122;12.776;2023-05-13T01:55:49;101317.44;;;7.68;77.92
31092;BME280;67728;53.122;12.776;2023-05-13T01:57:19;101320.09;;;7.72;77.10
31092;BME280;67728;53.122;12.776;2023-05-13T01:58:51;101320.97;;;7.77;76.74
31092;BME280;67728;53.122;12.776;2023-05-13T02:00:22;101313.22;;;7.77;76.84
31092;BME280;67728;53.122;12.776;2023-05-13T02:01:53;101314.09;;;7.78;77.53
31092;BME280;67728;53.122;12.776;2023-05-13T02:03:25;101316.66;;;7.76;78.03
31092;BME280;67728;53.122;12.776;2023-05-13T02:04:57;101308.94;;;7.78;77.44
31092;BME280;67728;53.122;12.776;2023-05-13T02:06:27;101311.50;;;7.79;77.46
31092;BME280;67728;53.122;12.776;2023-05-13T02:08:00;101312.38;;;7.84;77.38
31092;BME280;67728;53.122;12.776;2023-05-13T02:09:31;101312.41;;;7.92;78.01
31092;BME280;67728;53.122;12.776;2023-05-13T02:11:03;101311.53;;;7.81;77.99
31092;BME280;67728;53.122;12.776;2023-05-13T02:12:35;101319.31;;;7.89;78.12
31092;BME280;67728;53.122;12.776;2023-05-13T02:14:07;101321.94;;;7.95;77.10
31092;BME280;67728;53.122;12.776;2023-05-13T02:15:38;101329.63;;;7.86;76.46
31092;BME280;67728;53.122;12.776;2023-05-13T02:17:10;101318.34;;;7.71;77.41
31092;BME280;67728;53.122;12.776;2023-05-13T02:18:41;101326.03;;;7.61;77.62
31092;BME280;67728;53.122;12.776;2023-05-13T02:20:13;101316.53;;;7.55;78.03
31092;BME280;67728;53.122;12.776;2023-05-13T02:21:44;101317.47;;;7.65;77.61
31092;BME280;67728;53.122;12.776;2023-05-13T02:23:17;101319.19;;;7.67;78.14
31092;BME280;67728;53.122;12.776;2023-05-13T02:24:48;101319.19;;;7.67;77.74
31092;BME280;67728;53.122;12.776;2023-05-13T02:26:19;101311.44;;;7.70;77.69
31092;BME280;67728;53.122;12.776;2023-05-13T02:27:51;101311.44;;;7.66;77.57
31092;BME280;67728;53.122;12.776;2023-05-13T02:29:23;101312.34;;;7.75;77.04
31092;BME280;67728;53.122;12.776;2023-05-13T02:30:54;101315.78;;;7.73;77.53
31092;BME280;67728;53.122;12.776;2023-05-13T02:32:26;101314.97;;;7.78;77.34
31092;BME280;67728;53.122;12.776;2023-05-13T02:33:57;101314.06;;;7.75;77.55
31092;BME280;67728;53.122;12.776;2023-05-13T02:35:28;101317.38;;;7.57;76.68
31092;BME280;67728;53.122;12.776;2023-05-13T02:37:00;101317.41;;;7.56;77.37
31092;BME280;67728;53.122;12.776;2023-05-13T02:38:33;101315.75;;;7.67;77.51
31092;BME280;67728;53.122;12.776;2023-05-13T02:40:05;101314.81;;;7.57;76.96
31092;BME280;67728;53.122;12.776;2023-05-13T02:41:37;101318.13;;;7.41;76.94
31092;BME280;67728;53.122;12.776;2023-05-13T02:43:08;101320.72;;;7.40;77.84
31092;BME280;67728;53.122;12.776;2023-05-13T02:44:40;101319.91;;;7.45;78.23
31092;BME280;67728;53.122;12.776;2023-05-13T02:46:10;101314.66;;;7.36;79.50
31092;BME280;67728;53.122;12.776;2023-05-13T02:47:42;101322.38;;;7.33;78.89
31092;BME280;67728;53.122;12.776;2023-05-13T02:49:14;101319.84;;;7.39;78.70
31092;BME280;67728;53.122;12.776;2023-05-13T02:50:45;101321.53;;;7.34;78.30
31092;BME280;67728;53.122;12.776;2023-05-13T02:52:16;101319.81;;;7.32;77.87
31092;BME280;67728;53.122;12.776;2023-05-13T02:53:49;101315.41;;;7.18;78.62
31092;BME280;67728;53.122;12.776;2023-05-13T02:55:20;101320.59;;;7.21;78.83
31092;BME280;67728;53.122;12.776;2023-05-13T02:56:52;101323.25;;;7.32;78.76
31092;BME280;67728;53.122;12.776;2023-05-13T02:58:24;101323.28;;;7.38;78.42
31092;BME280;67728;53.122;12.776;2023-05-13T02:59:55;101315.56;;;7.41;77.14
31092;BME280;67728;53.122;12.776;2023-05-13T03:01:27;101321.50;;;7.33;76.79
31092;BME280;67728;53.122;12.776;2023-05-13T03:02:58;101319.63;;;7.09;77.86
31092;BME280;67728;53.122;12.776;2023-05-13T03:04:29;101328.25;;;7.12;77.78
31092;BME280;67728;53.122;12.776;2023-05-13T03:06:01;101317.78;;;6.94;78.34
31092;BME280;67728;53.122;12.776;2023-05-13T03:07:33;101318.63;;;6.93;79.39
31092;BME280;67728;53.122;12.776;2023-05-13T03:09:05;101318.59;;;6.90;79.35
31092;BME280;67728;53.122;12.776;2023-05-13T03:10:36;101313.56;;;7.02;79.53
31092;BME280;67728;53.122;12.776;2023-05-13T03:12:08;101315.22;;;6.96;79.27
31092;BME280;67728;53.122;12.776;2023-05-13T03:13:39;101321.22;;;6.96;79.39
31092;BME280;67728;53.122;12.776;2023-05-13T03:15:11;101317.03;;;7.09;79.28
31092;BME280;67728;53.122;12.776;2023-05-13T03:16:43;101316.25;;;7.17;78.66
31092;BME280;67728;53.122;12.776;2023-05-13T03:18:14;101323.09;;;7.11;78.50
31092;BME280;67728;53.122;12.776;2023-05-13T03:19:45;101322.22;;;7.10;78.62
31092;BME280;67728;53.122;12.776;2023-05-13T03:21:17;101324.69;;;6.97;78.74
31092;BME280;67728;53.122;12.776;2023-05-13T03:22:48;101326.31;;;6.89;79.17
31092;BME280;67728;53.122;12.776;2023-05-13T03:24:20;101326.22;;;6.80;79.33
31092;BME280;67728;53.122;12.776;2023-05-13T03:25:52;101327.84;;;6.69;79.35
31092;BME280;67728;53.122;12.776;2023-05-13T03:27:24;101327.03;;;6.74;79.83
31092;BME280;67728;53.122;12.776;2023-05-13T03:28:55;101335.63;;;6.75;80.36
31092;BME280;67728;53.122;12.776;2023-05-13T03:30:27;101332.25;;;6.80;80.58
31092;BME280;67728;53.122;12.776;2023-05-13T03:31:59;101333.91;;;6.74;79.28
31092;BME280;67728;53.122;12.776;2023-05-13T03:33:29;101333.88;;;6.71;79.63
31092;BME280;67728;53.122;12.776;2023-05-13T03:35:01;101336.56;;;6.83;80.17
31092;BME280;67728;53.122;12.776;2023-05-13T03:36:31;101340.00;;;6.82;79.52
31092;BME280;67728;53.122;12.776;2023-05-13T03:38:03;101333.19;;;6.90;79.93
31092;BME280;67728;53.122;12.776;2023-05-13T03:39:36;101329.84;;;6.98;79.79
31092;BME280;67728;53.122;12.776;2023-05-13T03:41:07;101338.47;;;7.02;79.56
31092;BME280;67728;53.122;12.776;2023-05-13T03:42:38;101331.66;;;7.11;79.92
31092;BME280;67728;53.122;12.776;2023-05-13T03:44:10;101330.00;;;7.15;80.14
31092;BME280;67728;53.122;12.776;2023-05-13T03:45:41;101336.06;;;7.18;79.45
31092;BME280;67728;53.122;12.776;2023-05-13T03:47:16;101330.88;;;7.20;79.49
31092;BME280;67728;53.122;12.776;2023-05-13T03:48:48;101342.00;;;7.11;79.49
31092;BME280;67728;53.122;12.776;2023-05-13T03:50:19;101338.56;;;7.11;79.19
31092;BME280;67728;53.122;12.776;2023-05-13T03:51:50;101341.22;;;7.18;80.08
31092;BME280;67728;53.122;12.776;2023-05-13T03:53:21;101338.59;;;7.17;80.20
31092;BME280;67728;53.122;12.776;2023-05-13T03:54:54;101344.66;;;7.22;79.56
31092;BME280;67728;53.122;12.776;2023-05-13T03:56:25;101345.56;;;7.24;79.37
31092;BME280;67728;53.122;12.776;2023-05-13T03:57:56;101347.25;;;7.20;79.68
31092;BME280;67728;53.122;12.776;2023-05-13T03:59:27;101342.88;;;7.16;79.59
31092;BME280;67728;53.122;12.776;2023-05-13T04:00:59;101341.22;;;7.20;80.21
31092;BME280;67728;53.122;12.776;2023-05-13T04:02:31;101356.72;;;7.24;79.99
31092;BME280;67728;53.122;12.776;2023-05-13T04:04:02;101355.75;;;7.12;79.96
31092;BME280;67728;53.122;12.776;2023-05-13T04:05:34;101354.03;;;7.12;79.27
31092;BME280;67728;53.122;12.776;2023-05-13T04:07:05;101356.63;;;7.11;79.54
31092;BME280;67728;53.122;12.776;2023-05-13T04:08:36;101356.63;;;7.14;79.31
31092;BME280;67728;53.122;12.776;2023-05-13T04:10:10;101357.28;;;6.90;79.75
31092;BME280;67728;53.122;12.776;2023-05-13T04:11:41;101360.75;;;6.94;80.18
31092;BME280;67728;53.122;12.776;2023-05-13T04:13:13;101358.13;;;6.91;80.87
31092;BME280;67728;53.122;12.776;2023-05-13T04:14:45;101365.13;;;7.04;79.80
31092;BME280;67728;53.122;12.776;2023-05-13T04:16:16;101362.69;;;7.17;80.43
31092;BME280;67728;53.122;12.776;2023-05-13T04:17:47;101369.56;;;7.17;80.41
31092;BME280;67728;53.122;12.776;2023-05-13T04:19:18;101372.97;;;7.13;80.25
31092;BME280;67728;53.122;12.776;2023-05-13T04:20:49;101365.28;;;7.19;79.78
31092;BME280;67728;53.122;12.776;2023-05-13T04:22:23;101365.25;;;7.14;80.45
31092;BME280;67728;53.122;12.776;2023-05-13T04:23:53;101369.50;;;7.08;80.72
31092;BME280;67728;53.122;12.776;2023-05-13T04:25:26;101370.41;;;7.13;80.38
31092;BME280;67728;53.122;12.776;2023-05-13T04:26:58;101374.69;;;7.14;79.88
31092;BME280;67728;53.122;12.776;2023-05-13T04:28:30;101373.00;;;7.16;80.50
31092;BME280;67728;53.122;12.776;2023-05-13T04:30:01;101373.91;;;7.22;80.67
31092;BME280;67728;53.122;12.776;2023-05-13T04:31:33;101385.16;;;7.29;79.71
31092;BME280;67728;53.122;12.776;2023-05-13T04:33:05;101384.38;;;7.39;80.55
31092;BME280;67728;53.122;12.776;2023-05-13T04:34:35;101383.56;;;7.45;79.09
31092;BME280;67728;53.122;12.776;2023-05-13T04:36:07;101375.91;;;7.55;79.94
31092;BME280;67728;53.122;12.776;2023-05-13T04:37:38;101383.69;;;7.63;79.75
31092;BME280;67728;53.122;12.776;2023-05-13T04:39:10;101379.53;;;7.78;79.39
31092;BME280;67728;53.122;12.776;2023-05-13T04:40:43;101382.09;;;7.81;78.68
31092;BME280;67728;53.122;12.776;2023-05-13T04:42:16;101385.56;;;7.80;78.78
31092;BME280;67728;53.122;12.776;2023-05-13T04:43:48;101390.78;;;7.91;78.32
31092;BME280;67728;53.122;12.776;2023-05-13T04:45:19;101390.78;;;7.96;78.82
31092;BME280;67728;53.122;12.776;2023-05-13T04:46:50;101392.59;;;8.12;78.19
31092;BME280;67728;53.122;12.776;2023-05-13T04:48:21;101389.22;;;8.19;78.48
31092;BME280;67728;53.122;12.776;2023-05-13T04:49:53;101386.72;;;8.29;77.64
31092;BME280;67728;53.122;12.776;2023-05-13T04:51:24;101385.88;;;8.41;77.73
31092;BME280;67728;53.122;12.776;2023-05-13T04:52:55;101396.31;;;8.56;78.23
31092;BME280;67728;53.122;12.776;2023-05-13T04:54:27;101396.31;;;8.56;77.13
31092;BME280;67728;53.122;12.776;2023-05-13T04:56:00;101390.28;;;8.59;77.70
31092;BME280;67728;53.122;12.776;2023-05-13T04:57:32;101386.00;;;8.74;77.67
31092;BME280;67728;53.122;12.776;2023-05-13T04:59:03;101393.78;;;8.80;78.75
31092;BME280;67728;53.122;12.776;2023-05-13T05:00:35;101394.69;;;8.88;77.00
31092;BME280;67728;53.122;12.776;2023-05-13T05:02:07;101390.41;;;8.99;77.21
31092;BME280;67728;53.122;12.776;2023-05-13T05:03:38;101399.00;;;9.06;76.49
31092;BME280;67728;53.122;12.776;2023-05-13T05:05:10;101404.19;;;9.12;76.52
31092;BME280;67728;53.122;12.776;2023-05-13T05:06:41;101397.31;;;9.16;76.86
31092;BME280;67728;53.122;12.776;2023-05-13T05:08:13;101400.78;;;9.27;76.02
31092;BME280;67728;53.122;12.776;2023-05-13T05:09:44;101407.69;;;9.22;76.79
31092;BME280;67728;53.122;12.776;2023-05-13T05:11:16;101399.91;;;9.34;76.57
31092;BME280;67728;53.122;12.776;2023-05-13T05:12:49;101405.97;;;9.40;75.93
31092;BME280;67728;53.122;12.776;2023-05-13T05:14:20;101405.09;;;9.46;76.18
31092;BME280;67728;53.122;12.776;2023-05-13T05:15:51;101410.28;;;9.50;76.53
31092;BME280;67728;53.122;12.776;2023-05-13T05:17:22;101408.53;;;9.60;76.27
31092;BME280;67728;53.122;12.776;2023-05-13T05:18:53;101407.69;;;9.61;75.47
31092;BME280;67728;53.122;12.776;2023-05-13T05:20:25;101406.81;;;9.71;75.87
31092;BME280;67728;53.122;12.776;2023-05-13T05:21:56;101406.81;;;9.77;76.57
31092;BME280;67728;53.122;12.776;2023-05-13T05:23:28;101412.00;;;9.89;75.89
31092;BME280;67728;53.122;12.776;2023-05-13T05:25:00;101409.38;;;9.94;75.91
31092;BME280;67728;53.122;12.776;2023-05-13T05:26:32;101410.25;;;9.94;76.49
31092;BME280;67728;53.122;12.776;2023-05-13T05:28:04;101410.22;;;10.06;74.95
31092;BME280;67728;53.122;12.776;2023-05-13T05:29:35;101407.63;;;10.11;74.37
31092;BME280;67728;53.122;12.776;2023-05-13T05:31:07;101418.88;;;10.02;74.18
31092;BME280;67728;53.122;12.776;2023-05-13T05:32:39;101411.94;;;10.09;74.37
31092;BME280;67728;53.122;12.776;2023-05-13T05:34:10;101413.69;;;10.14;73.82
31092;BME280;67728;53.122;12.776;2023-05-13T05:35:42;101408.50;;;10.13;74.94
31092;BME280;67728;53.122;12.776;2023-05-13T05:37:14;101421.44;;;10.22;74.35
31092;BME280;67728;53.122;12.776;2023-05-13T05:38:44;101420.53;;;10.31;73.58
31092;BME280;67728;53.122;12.776;2023-05-13T05:40:16;101418.81;;;10.40;73.18
31092;BME280;67728;53.122;12.776;2023-05-13T05:41:50;101418.69;;;10.60;72.94
31092;BME280;67728;53.122;12.776;2023-05-13T05:43:22;101423.88;;;10.67;74.94
31092;BME280;67728;53.122;12.776;2023-05-13T05:44:53;101428.16;;;10.71;72.30
31092;BME280;67728;53.122;12.776;2023-05-13T05:46:24;101425.50;;;10.88;69.91
31092;BME280;67728;53.122;12.776;2023-05-13T05:47:55;101428.13;;;10.87;70.53
31092;BME280;67728;53.122;12.776;2023-05-13T05:49:27;101421.03;;;11.13;68.75
31092;BME280;67728;53.122;12.776;2023-05-13T05:50:58;101431.06;;;11.58;64.22
31092;BME280;67728;53.122;12.776;2023-05-13T05:52:29;101431.63;;;11.95;63.09
31092;BME280;67728;53.122;12.776;2023-05-13T05:54:01;101430.56;;;12.19;64.51
31092;BME280;67728;53.122;12.776;2023-05-13T05:55:33;101419.31;;;12.15;64.22
31092;BME280;67728;53.122;12.776;2023-05-13T05:57:05;101426.22;;;12.18;63.44
31092;BME280;67728;53.122;12.776;2023-05-13T05:58:37;101421.59;;;12.41;63.87
31092;BME280;67728;53.122;12.776;2023-05-13T06:00:09;101423.38;;;12.39;63.90
31092;BME280;67728;53.122;12.776;2023-05-13T06:01:41;101419.91;;;12.40;61.18
31092;BME280;67728;53.122;12.776;2023-05-13T06:03:13;101414.69;;;12.40;60.80
31092;BME280;67728;53.122;12.776;2023-05-13T06:04:44;101418.13;;;12.43;60.63
31092;BME280;67728;53.122;12.776;2023-05-13T06:06:16;101421.53;;;12.47;61.02
31092;BME280;67728;53.122;12.776;2023-05-13T06:07:48;101421.50;;;12.50;61.02
31092;BME280;67728;53.122;12.776;2023-05-13T06:09:19;101416.16;;;12.62;60.06
31092;BME280;67728;53.122;12.776;2023-05-13T06:10:51;101422.03;;;12.76;57.36
31092;BME280;67728;53.122;12.776;2023-05-13T06:12:24;101414.03;;;12.91;58.04
31092;BME280;67728;53.122;12.776;2023-05-13T06:13:56;101423.56;;;12.94;57.56
31092;BME280;67728;53.122;12.776;2023-05-13T06:15:27;101419.88;;;13.08;58.05
31092;BME280;67728;53.122;12.776;2023-05-13T06:16:59;101416.16;;;13.26;57.10
31092;BME280;67728;53.122;12.776;2023-05-13T06:18:30;101420.28;;;13.39;57.50
31092;BME280;67728;53.122;12.776;2023-05-13T06:20:03;101415.69;;;13.55;55.57
31092;BME280;67728;53.122;12.776;2023-05-13T06:21:33;101419.06;;;13.61;55.52
31092;BME280;67728;53.122;12.776;2023-05-13T06:23:05;101417.16;;;13.71;55.73
31092;BME280;67728;53.122;12.776;2023-05-13T06:24:37;101419.66;;;13.78;56.05
31092;BME280;67728;53.122;12.776;2023-05-13T06:26:11;101414.78;;;14.06;52.79
31092;BME280;67728;53.122;12.776;2023-05-13T06:27:45;101414.56;;;14.17;54.39
31092;BME280;67728;53.122;12.776;2023-05-13T06:29:15;101423.94;;;14.28;53.86
31092;BME280;67728;53.122;12.776;2023-05-13T06:30:47;101423.81;;;14.36;54.60
31092;BME280;67728;53.122;12.776;2023-05-13T06:32:19;101422.88;;;14.40;52.05
31092;BME280;67728;53.122;12.776;2023-05-13T06:33:50;101427.88;;;14.51;51.63
31092;BME280;67728;53.122;12.776;2023-05-13T06:35:22;101422.44;;;14.61;52.17
31092;BME280;67728;53.122;12.776;2023-05-13T06:36:53;101420.66;;;14.63;52.59
31092;BME280;67728;53.122;12.776;2023-05-13T06:38:25;101423.25;;;14.65;52.15
31092;BME280;67728;53.122;12.776;2023-05-13T06:39:57;101423.66;;;14.86;51.90
31092;BME280;67728;53.122;12.776;2023-05-13T06:41:29;101425.97;;;15.00;52.34
31092;BME280;67728;53.122;12.776;2023-05-13T06:43:02;101433.63;;;15.08;50.40
31092;BME280;67728;53.122;12.776;2023-05-13T06:44:33;101427.16;;;15.24;47.97
31092;BME280;67728;53.122;12.776;2023-05-13T06:46:05;101430.13;;;15.44;48.23
31092;BME280;67728;53.122;12.776;2023-05-13T06:47:37;101433.44;;;15.53;49.62
31092;BME280;67728;53.122;12.776;2023-05-13T06:49:08;101432.19;;;15.68;50.17
31092;BME280;67728;53.122;12.776;2023-05-13T06:50:40;101432.34;;;15.96;48.62
31092;BME280;67728;53.122;12.776;2023-05-13T06:52:11;101435.13;;;15.90;50.07
31092;BME280;67728;53.122;12.776;2023-05-13T06:53:43;101427.75;;;16.05;50.16
31092;BME280;67728;53.122;12.776;2023-05-13T06:55:15;101434.72;;;16.37;48.80
31092;BME280;67728;53.122;12.776;2023-05-13T06:56:48;101433.53;;;16.49;46.05
31092;BME280;67728;53.122;12.776;2023-05-13T06:58:21;101433.13;;;16.64;46.98
31092;BME280;67728;53.122;12.776;2023-05-13T06:59:52;101432.94;;;16.70;46.64
31092;BME280;67728;53.122;12.776;2023-05-13T07:01:24;101433.28;;;17.16;47.08
31092;BME280;67728;53.122;12.776;2023-05-13T07:02:55;101431.38;;;17.21;47.26
31092;BME280;67728;53.122;12.776;2023-05-13T07:04:27;101434.03;;;17.20;45.34
31092;BME280;67728;53.122;12.776;2023-05-13T07:05:59;101438.31;;;17.50;44.06
31092;BME280;67728;53.122;12.776;2023-05-13T07:07:31;101427.94;;;17.73;42.76
31092;BME280;67728;53.122;12.776;2023-05-13T07:09:03;101433.44;;;17.66;45.77
31092;BME280;67728;53.122;12.776;2023-05-13T07:10:35;101426.28;;;17.96;44.28
31092;BME280;67728;53.122;12.776;2023-05-13T07:12:07;101433.66;;;17.86;44.50
31092;BME280;67728;53.122;12.776;2023-05-13T07:13:41;101426.31;;;18.20;43.48
31092;BME280;67728;53.122;12.776;2023-05-13T07:15:13;101435.84;;;18.47;41.67
31092;BME280;67728;53.122;12.776;2023-05-13T07:16:45;101435.94;;;18.44;39.51
31092;BME280;67728;53.122;12.776;2023-05-13T07:18:17;101437.84;;;18.41;40.09
31092;BME280;67728;53.122;12.776;2023-05-13T07:19:49;101437.75;;;18.19;40.15
31092;BME280;67728;53.122;12.776;2023-05-13T07:21:20;101429.31;;;18.34;40.85
31092;BME280;67728;53.122;12.776;2023-05-13T07:22:52;101429.41;;;18.56;41.73
31092;BME280;67728;53.122;12.776;2023-05-13T07:24:24;101428.91;;;18.70;40.57
31092;BME280;67728;53.122;12.776;2023-05-13T07:25:55;101431.31;;;18.76;38.28
31092;BME280;67728;53.122;12.776;2023-05-13T07:27:26;101434.16;;;18.70;41.12
31092;BME280;67728;53.122;12.776;2023-05-13T07:28:59;101431.34;;;18.97;40.83
31092;BME280;67728;53.122;12.776;2023-05-13T07:30:31;101442.56;;;19.01;41.62
31092;BME280;67728;53.122;12.776;2023-05-13T07:32:03;101438.69;;;19.11;39.08
31092;BME280;67728;53.122;12.776;2023-05-13T07:33:35;101430.44;;;19.20;40.56
31092;BME280;67728;53.122;12.776;2023-05-13T07:35:07;101429.28;;;19.27;39.47
31092;BME280;67728;53.122;12.776;2023-05-13T07:36:39;101423.94;;;19.07;40.11
31092;BME280;67728;53.122;12.776;2023-05-13T07:38:11;101427.53;;;19.04;43.68
31092;BME280;67728;53.122;12.776;2023-05-13T07:39:42;101425.38;;;18.92;42.21
31092;BME280;67728;53.122;12.776;2023-05-13T07:41:14;101430.09;;;19.06;39.53
31092;BME280;67728;53.122;12.776;2023-05-13T07:42:45;101423.09;;;19.28;39.26
31092;BME280;67728;53.122;12.776;2023-05-13T07:44:18;101424.69;;;19.76;36.57
31092;BME280;67728;53.122;12.776;2023-05-13T07:45:50;101421.38;;;19.91;39.36
31092;BME280;67728;53.122;12.776;2023-05-13T07:47:22;101427.44;;;19.73;36.50
31092;BME280;67728;53.122;12.776;2023-05-13T07:48:52;101422.78;;;19.99;37.79
31092;BME280;67728;53.122;12.776;2023-05-13T07:50:24;101420.28;;;20.16;37.26
31092;BME280;67728;53.122;12.776;2023-05-13T07:51:56;101417.03;;;19.69;37.19
31092;BME280;67728;53.122;12.776;2023-05-13T07:53:27;101424.75;;;19.94;37.24
31092;BME280;67728;53.122;12.776;2023-05-13T07:54:59;101432.56;;;19.96;34.68
31092;BME280;67728;53.122;12.776;2023-05-13T07:56:31;101427.75;;;20.27;35.99
31092;BME280;67728;53.122;12.776;2023-05-13T07:58:03;101430.13;;;20.11;37.70
31092;BME280;67728;53.122;12.776;2023-05-13T07:59:37;101422.44;;;20.66;36.42